TimeIST,TemperatureF,Dew PointF,Humidity,Sea Level PressureIn,VisibilityMPH,Wind Direction,Wind SpeedMPH,Gust SpeedMPH,PrecipitationIn,Events,Conditions,WindDirDegrees,DateUTC
12:00 AM,66.2,51.8,60,29.98,1.6,Calm,Calm,-,N/A,,Haze,0,2012-10-24 18:30:00
1:00 AM,66.2,51.8,60,29.95,1.6,Calm,Calm,-,N/A,,Haze,0,2012-10-24 19:30:00
2:00 AM,68.0,51.8,56,29.95,1.6,Calm,Calm,-,N/A,,Haze,0,2012-10-24 20:30:00
3:00 AM,64.4,51.8,64,29.95,1.6,Calm,Calm,-,N/A,,Haze,0,2012-10-24 21:30:00
4:00 AM,62.6,51.8,68,29.95,1.6,Calm,Calm,-,N/A,,Haze,0,2012-10-24 22:30:00
5:00 AM,60.8,53.6,77,29.95,1.6,Calm,Calm,-,N/A,,Haze,0,2012-10-24 23:30:00
5:30 AM,61,50,57,29.93,1,Calm,Calm,,,,Haze,,2012-10-25 00:00:00
6:00 AM,60.8,51.8,72,29.95,1.6,Calm,Calm,-,N/A,,Haze,0,2012-10-25 00:30:00
7:00 AM,59.0,51.8,77,29.98,1.6,Calm,Calm,-,N/A,,Haze,0,2012-10-25 01:30:00
8:00 AM,68.0,53.6,60,29.98,1.6,Calm,Calm,-,N/A,,Haze,0,2012-10-25 02:30:00
8:30 AM,71,54,44,29.95,1,Calm,Calm,,,,Haze,,2012-10-25 03:00:00
9:00 AM,73.4,53.6,50,30.01,1.6,Calm,Calm,-,N/A,,Haze,0,2012-10-25 03:30:00
11:00 AM,80.6,53.6,39,29.98,1.9,WNW,4.6,-,N/A,,Haze,300,2012-10-25 05:30:00
11:30 AM,82,53,26,29.91,1,WNW,6.9,,,,Haze,290,2012-10-25 06:00:00
12:00 PM,82.4,53.6,37,29.98,1.9,Variable,9.2,-,N/A,,Haze,0,2012-10-25 06:30:00
1:00 PM,84.2,51.8,33,29.92,2.5,Variable,8.1,-,N/A,,Haze,0,2012-10-25 07:30:00
2:00 PM,84.2,51.8,33,29.89,2.5,NW,8.1,-,N/A,,Haze,310,2012-10-25 08:30:00
2:30 PM,84,40,12,29.81,2,NW,6.9,,,,Haze,320,2012-10-25 09:00:00
4:00 PM,84.2,46.4,27,29.86,3.1,Variable,4.6,-,N/A,,Haze,0,2012-10-25 10:30:00
4:30 PM,84.2,46.4,27,29.86,3.1,NW,5.8,-,N/A,,Haze,320,2012-10-25 11:00:00
5:00 PM,84.2,46.4,27,29.86,3.1,Variable,1.2,-,N/A,,Haze,0,2012-10-25 11:30:00
5:30 PM,80.6,42.8,26,29.86,2.5,Variable,5.8,-,N/A,,Haze,0,2012-10-25 12:00:00
6:30 PM,78.8,44.6,30,29.89,1.9,Calm,Calm,-,N/A,,Haze,0,2012-10-25 13:00:00
7:00 PM,75.2,44.6,34,29.89,1.6,Calm,Calm,-,N/A,,Haze,0,2012-10-25 13:30:00
8:00 PM,73.4,46.4,38,29.92,1.6,Calm,Calm,-,N/A,,Haze,0,2012-10-25 14:30:00
9:00 PM,71.6,44.6,38,29.92,1.6,Calm,Calm,-,N/A,,Haze,0,2012-10-25 15:30:00
9:30 PM,69.8,44.6,40,29.95,1.6,Calm,Calm,-,N/A,,Haze,0,2012-10-25 16:00:00
10:00 PM,68.0,44.6,43,29.95,1.6,Calm,Calm,-,N/A,,Haze,0,2012-10-25 16:30:00
10:30 PM,68.0,44.6,43,29.95,1.6,Calm,Calm,-,N/A,,Haze,0,2012-10-25 17:00:00
11:00 PM,68.0,44.6,43,29.95,1.6,Calm,Calm,-,N/A,,Haze,0,2012-10-25 17:30:00
11:30 PM,68,47,35,29.89,1,Calm,Calm,,,,Haze,,2012-10-25 18:00:00